createdAt,value
2018-01-18T00:00:06.773Z,10.37
2018-01-18T00:02:34.336Z,6.27
2018-01-18T00:05:01.868Z,11.90
2018-01-18T00:07:29.398Z,5.83
2018-01-18T00:09:57.040Z,8.57
2018-01-18T00:12:24.783Z,6.07
2018-01-18T00:14:52.314Z,13.43
2018-01-18T00:17:20.218Z,7.15
2018-01-18T00:19:47.755Z,9.10
2018-01-18T00:22:15.535Z,12.45
2018-01-18T00:24:43.085Z,7.00
2018-01-18T00:27:10.611Z,4.80
2018-01-18T00:29:38.139Z,4.80
2018-01-18T00:32:05.698Z,4.20
2018-01-18T00:34:33.232Z,5.22
2018-01-18T00:37:00.757Z,4.77
2018-01-18T00:39:28.915Z,12.03
2018-01-18T00:41:56.465Z,6.80
2018-01-18T00:44:24.023Z,10.40
2018-01-18T00:46:51.578Z,12.10
2018-01-18T00:49:19.871Z,8.13
2018-01-18T00:51:47.403Z,7.60
2018-01-18T00:54:16.496Z,11.73
2018-01-18T00:56:44.023Z,16.40
2018-01-18T00:59:11.568Z,10.10
2018-01-18T01:01:39.556Z,9.73
2018-01-18T01:04:07.111Z,15.27
2018-01-18T01:06:35.406Z,11.40
2018-01-18T01:09:03.015Z,7.60
2018-01-18T01:11:30.564Z,11.40
2018-01-18T01:13:58.120Z,11.53
2018-01-18T01:16:26.443Z,11.85
2018-01-18T01:18:54.471Z,9.90
2018-01-18T01:21:22.031Z,17.15
2018-01-18T01:23:50.994Z,10.15
2018-01-18T01:26:18.550Z,9.15
2018-01-18T01:28:46.089Z,15.97
2018-01-18T01:31:24.320Z,12.85
2018-01-18T01:36:24.710Z,11.00
2018-01-18T01:38:52.924Z,7.70
2018-01-18T01:41:20.467Z,6.35
2018-01-18T01:43:47.996Z,11.77
2018-01-18T01:46:16.463Z,13.15
2018-01-18T01:48:43.991Z,6.50
2018-01-18T01:51:11.519Z,6.10
2018-01-18T01:53:39.234Z,8.13
2018-01-18T01:56:06.758Z,6.17
2018-01-18T01:58:34.288Z,4.03
2018-01-18T02:01:01.900Z,4.53
2018-01-18T02:03:29.432Z,8.05
2018-01-18T02:05:56.961Z,6.53
2018-01-18T02:08:25.287Z,8.90
2018-01-18T02:10:52.815Z,6.97
2018-01-18T02:13:20.353Z,8.32
2018-01-18T02:15:47.917Z,3.47
2018-01-18T02:18:15.535Z,8.73
2018-01-18T02:20:43.647Z,5.20
2018-01-18T02:23:11.575Z,7.43
2018-01-18T02:25:39.107Z,6.07
2018-01-18T02:28:06.634Z,13.57
2018-01-18T02:30:34.228Z,9.83
2018-01-18T02:33:01.760Z,4.33
2018-01-18T02:35:29.304Z,3.50
2018-01-18T02:37:56.900Z,6.20
2018-01-18T02:40:24.433Z,5.80
2018-01-18T02:42:51.961Z,7.33
2018-01-18T02:45:20.226Z,8.80
2018-01-18T02:47:47.755Z,3.13
2018-01-18T02:50:16.472Z,4.85
2018-01-18T02:52:44.023Z,9.20
2018-01-18T02:55:11.547Z,5.12
2018-01-18T02:57:39.083Z,7.40
2018-01-18T03:00:06.658Z,7.10
2018-01-18T03:02:34.188Z,3.00
2018-01-18T03:05:01.728Z,4.03
2018-01-18T03:07:29.696Z,7.30
2018-01-18T03:09:57.234Z,10.13
2018-01-18T03:12:24.771Z,9.73
2018-01-18T03:14:52.336Z,11.57
2018-01-18T03:17:19.863Z,7.65
2018-01-18T03:19:47.390Z,7.40
2018-01-18T03:22:17.186Z,4.00
2018-01-18T03:24:44.714Z,5.07
2018-01-18T03:27:13.937Z,5.63
2018-01-18T03:29:42.304Z,4.40
2018-01-18T03:32:09.836Z,9.17
2018-01-18T03:34:37.360Z,8.53
2018-01-18T03:37:04.915Z,9.37
2018-01-18T03:39:32.459Z,4.20
2018-01-18T03:41:59.991Z,5.50
2018-01-18T03:44:28.312Z,2.60
2018-01-18T03:46:55.842Z,8.80
2018-01-18T03:49:23.379Z,4.30
2018-01-18T03:51:51.900Z,3.17
2018-01-18T03:54:19.422Z,3.80
2018-01-18T03:56:47.718Z,5.87
2018-01-18T03:59:16.463Z,2.62
2018-01-18T04:01:43.982Z,2.97
2018-01-18T04:04:11.518Z,5.32
2018-01-18T04:06:39.087Z,2.70
2018-01-18T04:09:06.619Z,6.50
2018-01-18T04:11:35.246Z,5.23
2018-01-18T04:14:03.360Z,2.40
2018-01-18T04:16:30.890Z,3.17
2018-01-18T04:18:58.427Z,3.60
2018-01-18T04:21:26.146Z,4.62
2018-01-18T04:23:54.093Z,5.10
2018-01-18T04:26:21.636Z,7.82
2018-01-18T04:28:49.188Z,2.97
2018-01-18T04:31:16.727Z,4.37
2018-01-18T04:33:44.251Z,2.83
2018-01-18T04:36:12.302Z,5.63
2018-01-18T04:38:39.830Z,2.50
2018-01-18T04:41:08.124Z,2.87
2018-01-18T04:43:35.727Z,4.83
2018-01-18T04:46:03.246Z,4.03
2018-01-18T04:48:30.771Z,4.03
2018-01-18T04:50:58.358Z,3.27
2018-01-18T04:53:25.898Z,2.50
2018-01-18T04:55:53.496Z,4.22
2018-01-18T04:58:21.571Z,3.30
2018-01-18T05:00:49.095Z,4.60
2018-01-18T05:03:16.619Z,2.70
2018-01-18T05:05:44.179Z,3.20
2018-01-18T05:08:11.707Z,3.63
2018-01-18T05:10:39.240Z,6.10
2018-01-18T05:13:06.794Z,6.87
2018-01-18T05:15:34.324Z,3.23
2018-01-18T05:18:01.853Z,4.40
2018-01-18T05:20:29.919Z,4.83
2018-01-18T05:22:57.507Z,3.10
2018-01-18T05:25:25.694Z,3.10
2018-01-18T05:27:53.255Z,4.13
2018-01-18T05:30:21.542Z,2.10
2018-01-18T05:32:49.186Z,2.13
2018-01-18T05:35:16.791Z,2.27
2018-01-18T05:37:44.319Z,4.00
2018-01-18T05:40:11.847Z,1.80
2018-01-18T05:42:40.107Z,3.70
2018-01-18T05:45:07.626Z,3.07
2018-01-18T05:47:35.152Z,1.80
2018-01-18T05:50:02.767Z,1.80
2018-01-18T05:52:30.294Z,1.70
2018-01-18T05:54:58.587Z,3.60
2018-01-18T05:57:26.139Z,2.00
2018-01-18T05:59:54.427Z,1.77
2018-01-18T06:02:21.964Z,4.60
2018-01-18T06:04:50.874Z,6.47
2018-01-18T06:07:18.407Z,4.30
2018-01-18T06:09:46.743Z,2.50
2018-01-18T06:15:17.516Z,2.33
2018-01-18T06:17:45.060Z,4.60
2018-01-18T06:20:12.591Z,2.23
2018-01-18T06:22:41.243Z,2.30
2018-01-18T06:25:08.780Z,12.33
2018-01-18T06:27:36.723Z,4.10
2018-01-18T06:30:04.292Z,2.80
2018-01-18T06:32:31.875Z,1.70
2018-01-18T06:34:59.403Z,2.73
2018-01-18T06:37:26.965Z,6.10
2018-01-18T06:39:54.808Z,7.18
2018-01-18T06:42:22.335Z,3.00
2018-01-18T06:44:50.509Z,3.60
2018-01-18T06:47:18.047Z,1.80
2018-01-18T06:49:45.576Z,1.47
2018-01-18T06:52:24.759Z,3.70
2018-01-18T06:55:14.172Z,1.30
2018-01-18T06:57:42.511Z,3.30
2018-01-18T07:00:10.044Z,3.33
2018-01-18T07:02:37.574Z,1.50
2018-01-18T07:05:05.588Z,1.50
2018-01-18T07:07:33.123Z,5.40
2018-01-18T07:10:00.708Z,5.13
2018-01-18T07:12:29.159Z,1.40
2018-01-18T07:14:56.854Z,1.97
2018-01-18T07:17:24.481Z,1.45
2018-01-18T07:19:52.039Z,5.00
2018-01-18T07:22:19.562Z,1.58
2018-01-18T07:24:47.100Z,1.60
2018-01-18T07:27:15.803Z,1.10
2018-01-18T07:29:43.757Z,3.10
2018-01-18T07:32:11.291Z,7.63
2018-01-18T07:34:38.871Z,2.37
2018-01-18T07:37:06.395Z,1.60
2018-01-18T07:39:34.022Z,1.40
2018-01-18T07:42:01.583Z,1.58
2018-01-18T07:44:29.116Z,4.63
2018-01-18T07:46:56.652Z,1.33
2018-01-18T07:49:24.708Z,1.20
2018-01-18T07:51:52.335Z,1.20
2018-01-18T07:54:19.891Z,1.27
2018-01-18T07:59:46.387Z,2.30
2018-01-18T08:02:25.233Z,4.85
2018-01-18T08:15:22.861Z,1.42
2018-01-18T08:17:50.399Z,1.27
2018-01-18T08:20:17.931Z,2.67
2018-01-18T08:22:45.496Z,1.50
2018-01-18T08:25:26.672Z,1.52
2018-01-18T08:30:33.338Z,1.40
2018-01-18T08:33:00.887Z,2.30
2018-01-18T08:35:28.417Z,1.70
2018-01-18T08:37:55.971Z,1.10
2018-01-18T08:40:23.570Z,1.00
2018-01-18T08:42:51.095Z,1.50
2018-01-18T08:45:18.828Z,1.10
2018-01-18T08:47:46.600Z,0.90
2018-01-18T08:50:25.538Z,1.08
2018-01-18T09:01:28.107Z,1.85
2018-01-18T09:03:55.639Z,1.30
2018-01-18T09:06:23.163Z,7.57
2018-01-18T09:08:51.212Z,0.90
2018-01-18T09:11:18.750Z,1.00
2018-01-18T09:13:46.288Z,0.90
2018-01-18T09:16:26.399Z,1.73
2018-01-18T09:21:35.960Z,1.00
2018-01-18T09:24:03.499Z,1.00
2018-01-18T09:26:31.791Z,2.00
2018-01-18T09:28:59.930Z,3.53
2018-01-18T09:31:27.739Z,0.75
2018-01-18T09:33:55.272Z,0.73
2018-01-18T09:36:22.879Z,3.53
2018-01-18T09:38:50.435Z,0.70
2018-01-18T09:41:18.738Z,0.80
2018-01-18T09:43:46.287Z,1.00
2018-01-18T09:46:25.725Z,1.00
2018-01-18T09:57:28.718Z,1.90
2018-01-18T09:59:56.266Z,1.33
2018-01-18T10:02:23.804Z,0.80
2018-01-18T10:04:51.360Z,0.90
2018-01-18T10:07:18.893Z,1.00
2018-01-18T10:09:46.439Z,0.90
2018-01-18T10:12:15.545Z,0.90
2018-01-18T10:14:43.091Z,0.83
2018-01-18T10:17:10.666Z,0.80
2018-01-18T10:19:39.543Z,0.90
2018-01-18T10:22:07.095Z,3.23
2018-01-18T10:24:34.647Z,1.53
2018-01-18T10:27:02.209Z,0.80
2018-01-18T10:29:29.740Z,1.00
2018-01-18T10:31:57.778Z,0.73
2018-01-18T10:34:39.419Z,0.80
2018-01-18T10:37:06.992Z,0.87
2018-01-18T10:39:34.540Z,1.65
2018-01-18T10:42:02.864Z,0.80
2018-01-18T10:44:30.412Z,0.90
2018-01-18T10:46:57.952Z,0.90
2018-01-18T10:49:25.519Z,0.80
2018-01-18T10:51:53.092Z,1.00
2018-01-18T10:54:20.631Z,1.00
2018-01-18T10:56:48.182Z,1.10
2018-01-18T10:59:16.814Z,1.53
2018-01-18T11:01:44.348Z,1.23
2018-01-18T11:04:11.964Z,1.13
2018-01-18T11:06:39.513Z,0.90
2018-01-18T11:09:07.804Z,1.60
2018-01-18T11:11:35.576Z,1.97
2018-01-18T11:14:03.116Z,1.00
2018-01-18T11:16:30.643Z,0.85
2018-01-18T11:18:58.207Z,0.90
2018-01-18T11:21:25.744Z,1.05
2018-01-18T11:23:53.284Z,0.87
2018-01-18T11:26:21.319Z,0.70
2018-01-18T11:28:48.852Z,0.70
2018-01-18T11:31:16.687Z,0.70
2018-01-18T11:33:44.503Z,0.70
2018-01-18T11:36:12.103Z,0.73
2018-01-18T11:38:41.092Z,0.80
2018-01-18T11:41:10.123Z,0.80
2018-01-18T11:43:37.780Z,1.60
2018-01-18T11:46:05.573Z,0.70
2018-01-18T11:48:33.530Z,0.70
2018-01-18T11:51:06.157Z,0.70
2018-01-18T11:53:34.576Z,0.73
2018-01-18T11:56:04.863Z,0.80
2018-01-18T11:58:40.974Z,0.70
2018-01-18T12:01:08.971Z,1.30
2018-01-18T12:03:37.511Z,1.23
2018-01-18T12:06:06.185Z,0.80
2018-01-18T12:08:34.773Z,1.73
2018-01-18T12:11:02.390Z,0.70
2018-01-18T12:13:33.145Z,0.90
2018-01-18T12:16:01.039Z,2.20
2018-01-18T12:18:28.884Z,0.60
2018-01-18T12:20:56.689Z,2.17
2018-01-18T12:23:24.932Z,1.95
2018-01-18T12:25:53.216Z,0.70
2018-01-18T12:28:21.804Z,1.10
2018-01-18T12:30:50.968Z,0.73
2018-01-18T12:33:18.674Z,0.90
2018-01-18T12:35:47.757Z,1.00
2018-01-18T12:38:15.635Z,1.67
2018-01-18T12:40:43.175Z,0.70
2018-01-18T12:43:11.549Z,0.83
2018-01-18T12:45:39.144Z,0.73
2018-01-18T12:48:06.727Z,0.70
2018-01-18T12:50:34.663Z,0.93
2018-01-18T12:53:02.215Z,1.70
2018-01-18T12:55:29.828Z,0.70
2018-01-18T12:57:58.207Z,2.73
2018-01-18T13:00:25.998Z,1.20
2018-01-18T13:02:53.571Z,0.70
2018-01-18T13:05:21.257Z,0.90
2018-01-18T13:07:49.412Z,0.80
2018-01-18T13:10:16.979Z,1.57
2018-01-18T13:12:44.934Z,0.70
2018-01-18T13:15:13.196Z,0.70
2018-01-18T13:17:42.147Z,0.83
2018-01-18T13:20:11.755Z,0.70
2018-01-18T13:22:39.560Z,2.97
2018-01-18T13:25:07.196Z,2.10
2018-01-18T13:27:35.481Z,1.00
2018-01-18T13:30:03.186Z,1.43
2018-01-18T13:32:30.836Z,0.80
2018-01-18T13:34:59.923Z,0.93
2018-01-18T13:37:28.243Z,0.90
2018-01-18T13:39:55.785Z,1.02
2018-01-18T13:42:23.398Z,0.83
2018-01-18T13:44:51.016Z,1.33
2018-01-18T13:47:18.621Z,1.05
2018-01-18T13:49:46.257Z,2.83
2018-01-18T13:52:25.539Z,0.88
2018-01-18T13:57:38.276Z,1.00
2018-01-18T14:00:05.823Z,1.00
2018-01-18T14:02:33.441Z,2.10
2018-01-18T14:05:01.096Z,1.00
2018-01-18T14:07:28.718Z,1.00
2018-01-18T14:09:56.280Z,0.90
2018-01-18T14:12:23.868Z,3.10
2018-01-18T14:14:51.668Z,0.97
2018-01-18T14:17:19.407Z,0.90
2018-01-18T14:19:47.015Z,0.93
2018-01-18T14:22:26.627Z,0.80
2018-01-18T14:33:39.742Z,1.33
2018-01-18T14:36:07.337Z,1.13
2018-01-18T14:38:37.049Z,1.00
2018-01-18T14:41:10.608Z,1.40
2018-01-18T14:43:38.863Z,1.20
2018-01-18T14:46:08.153Z,1.30
2018-01-18T14:48:35.925Z,0.90
2018-01-18T14:51:03.630Z,0.80
2018-01-18T14:53:31.248Z,0.90
2018-01-18T14:55:58.883Z,1.00
2018-01-18T14:58:27.587Z,3.08
2018-01-18T15:00:55.720Z,1.27
2018-01-18T15:03:24.307Z,1.73
2018-01-18T15:05:52.899Z,0.90
2018-01-18T15:08:22.621Z,0.90
2018-01-18T15:10:50.225Z,1.00
2018-01-18T15:13:17.843Z,1.20
2018-01-18T15:15:45.439Z,0.90
2018-01-18T15:18:24.484Z,4.53
2018-01-18T15:23:34.578Z,2.73
2018-01-18T15:26:02.353Z,1.53
2018-01-18T15:28:33.073Z,3.78
2018-01-18T15:31:01.696Z,1.20
2018-01-18T15:33:39.144Z,1.13
2018-01-18T15:36:10.964Z,2.83
2018-01-18T15:38:38.952Z,1.57
2018-01-18T15:41:14.052Z,0.90
2018-01-18T15:44:02.138Z,1.50
2018-01-18T15:46:39.603Z,1.47
2018-01-18T15:49:11.371Z,3.15
2018-01-18T15:51:45.965Z,1.43
2018-01-18T15:54:40.087Z,1.50
2018-01-18T15:57:10.979Z,2.43
2018-01-18T15:59:40.125Z,0.90
2018-01-18T16:02:09.978Z,1.30
2018-01-18T16:04:37.781Z,1.00
2018-01-18T16:07:05.955Z,0.90
2018-01-18T16:09:34.433Z,1.12
2018-01-18T16:12:03.032Z,1.27
2018-01-18T16:14:30.804Z,1.30
2018-01-18T16:16:59.922Z,1.67
2018-01-18T16:19:29.747Z,1.75
2018-01-18T16:21:58.659Z,1.77
2018-01-18T16:24:28.438Z,1.97
2018-01-18T16:26:57.169Z,1.30
2018-01-18T16:29:25.673Z,4.53
2018-01-18T16:31:54.058Z,6.90
2018-01-18T16:34:25.886Z,1.42
2018-01-18T16:36:54.128Z,1.90
2018-01-18T16:39:21.755Z,1.42
2018-01-18T16:44:29.585Z,1.58
2018-01-18T16:47:06.639Z,1.87
2018-01-18T16:49:34.242Z,2.20
2018-01-18T16:52:02.662Z,4.00
2018-01-18T16:54:33.547Z,2.28
2018-01-18T16:57:01.946Z,2.53
2018-01-18T16:59:30.343Z,1.10
2018-01-18T17:01:58.363Z,1.47
2018-01-18T17:04:25.899Z,1.00
2018-01-18T17:06:53.448Z,0.90
2018-01-18T17:09:21.047Z,0.80
2018-01-18T17:11:48.571Z,1.17
2018-01-18T17:14:16.492Z,1.13
2018-01-18T17:16:44.052Z,1.30
2018-01-18T17:19:11.579Z,0.80
2018-01-18T17:21:39.108Z,1.43
2018-01-18T17:24:07.208Z,1.10
2018-01-18T17:26:34.741Z,0.80
2018-01-18T17:29:02.387Z,1.10
2018-01-18T17:31:29.952Z,1.20
2018-01-18T17:33:57.484Z,0.95
2018-01-18T17:36:25.783Z,1.30
2018-01-18T17:38:53.383Z,1.20
2018-01-18T17:41:21.299Z,2.05
2018-01-18T17:43:48.900Z,5.80
2018-01-18T17:46:18.020Z,3.50
2018-01-18T17:48:45.587Z,2.47
2018-01-18T17:51:26.219Z,1.42
2018-01-18T18:01:49.262Z,2.60
2018-01-18T18:04:16.790Z,1.03
2018-01-18T18:06:44.330Z,1.10
2018-01-18T18:09:11.895Z,1.13
2018-01-18T18:11:39.419Z,1.67
2018-01-18T18:14:06.951Z,1.60
2018-01-18T18:16:34.644Z,1.58
2018-01-18T18:19:02.169Z,1.57
2018-01-18T18:21:29.700Z,1.83
2018-01-18T18:23:57.532Z,1.73
2018-01-18T18:26:25.831Z,2.05
2018-01-18T18:28:53.367Z,31.40
2018-01-18T18:31:21.687Z,2.10
2018-01-18T18:33:49.258Z,3.70
2018-01-18T18:36:16.876Z,2.00
2018-01-18T18:38:45.239Z,3.60
2018-01-18T18:41:13.729Z,1.37
2018-01-18T18:43:42.031Z,3.13
2018-01-18T18:46:09.670Z,1.87
2018-01-18T18:48:37.416Z,2.60
2018-01-18T18:51:04.998Z,2.00
2018-01-18T18:53:34.176Z,1.83
2018-01-18T18:56:01.792Z,1.90
2018-01-18T18:58:29.398Z,2.40
2018-01-18T19:00:57.009Z,2.47
2018-01-18T19:03:25.877Z,3.28
2018-01-18T19:05:54.227Z,3.77
2018-01-18T19:08:21.851Z,4.83
2018-01-18T19:10:50.362Z,11.53
2018-01-18T19:13:17.934Z,6.47
2018-01-18T19:15:46.312Z,13.65
2018-01-18T19:18:25.268Z,10.98
2018-01-18T19:23:54.705Z,5.70
2018-01-18T19:26:22.419Z,5.55
2018-01-18T19:28:49.959Z,6.93
2018-01-18T19:31:17.611Z,4.20
2018-01-18T19:33:46.967Z,2.80
2018-01-18T19:36:18.399Z,2.47
2018-01-18T19:38:46.013Z,2.90
2018-01-18T19:41:13.747Z,3.28
2018-01-18T19:43:41.466Z,1.90
2018-01-18T19:46:10.445Z,1.57
2018-01-18T19:48:40.390Z,6.73
2018-01-18T19:51:08.054Z,1.60
2018-01-18T19:53:35.614Z,1.47
2018-01-18T19:56:03.201Z,2.80
2018-01-18T19:58:30.803Z,1.00
2018-01-18T20:00:58.430Z,1.23
2018-01-18T20:03:26.778Z,2.10
2018-01-18T20:05:54.759Z,1.10
2018-01-18T20:08:22.295Z,2.20
2018-01-18T20:10:49.880Z,1.40
2018-01-18T20:13:18.276Z,3.27
2018-01-18T20:15:45.809Z,1.50
2018-01-18T20:18:32.356Z,1.90
2018-01-18T20:24:13.020Z,1.50
2018-01-18T20:26:40.603Z,1.87
2018-01-18T20:29:08.444Z,1.60
2018-01-18T20:31:37.702Z,1.70
2018-01-18T20:34:05.388Z,1.50
2018-01-18T20:36:33.886Z,2.22
2018-01-18T20:39:04.189Z,3.35
2018-01-18T20:41:31.831Z,2.10
2018-01-18T20:44:00.448Z,1.47
2018-01-18T20:46:29.558Z,2.27
2018-01-18T20:48:57.893Z,1.70
2018-01-18T20:51:25.540Z,2.50
2018-01-18T20:53:53.165Z,4.30
2018-01-18T20:56:21.662Z,2.20
2018-01-18T20:58:49.366Z,3.90
2018-01-18T21:01:17.012Z,2.73
2018-01-18T21:03:44.556Z,2.27
2018-01-18T21:06:12.143Z,1.57
2018-01-18T21:08:40.031Z,2.00
2018-01-18T21:11:07.658Z,1.80
2018-01-18T21:13:36.176Z,1.53
2018-01-18T21:16:03.810Z,1.70
2018-01-18T21:18:31.339Z,1.40
2018-01-18T21:20:58.917Z,1.70
2018-01-18T21:23:26.562Z,1.98
2018-01-18T21:25:54.125Z,2.70
2018-01-18T21:28:21.720Z,6.45
2018-01-18T21:30:50.016Z,3.17
2018-01-18T21:33:17.612Z,3.73
2018-01-18T21:35:45.148Z,4.47
2018-01-18T21:38:13.620Z,7.73
2018-01-18T21:40:41.147Z,8.00
2018-01-18T21:43:08.753Z,5.10
2018-01-18T21:45:36.422Z,5.23
2018-01-18T21:51:01.232Z,5.40
2018-01-18T21:53:28.971Z,6.73
2018-01-18T21:55:56.705Z,4.45
2018-01-18T21:58:24.342Z,5.43
2018-01-18T22:00:51.931Z,4.73
2018-01-18T22:03:19.574Z,2.90
2018-01-18T22:05:47.238Z,3.13
2018-01-18T22:08:15.534Z,2.23
2018-01-18T22:14:00.843Z,2.50
2018-01-18T22:16:28.534Z,2.35
2018-01-18T22:18:56.989Z,2.70
2018-01-18T22:21:25.000Z,2.17
2018-01-18T22:23:52.601Z,1.90
2018-01-18T22:26:20.667Z,2.57
2018-01-18T22:28:48.328Z,1.63
2018-01-18T22:31:17.277Z,2.12
2018-01-18T22:33:44.921Z,1.73
2018-01-18T22:36:13.286Z,1.60
2018-01-18T22:38:41.083Z,1.73
2018-01-18T22:41:08.962Z,2.40
2018-01-18T22:43:36.509Z,1.37
2018-01-18T22:46:04.116Z,4.00
2018-01-18T22:48:32.420Z,2.37
2018-01-18T22:50:59.955Z,1.70
2018-01-18T22:53:29.211Z,1.37
2018-01-18T22:55:56.740Z,1.63
2018-01-18T22:58:24.274Z,1.67
2018-01-18T23:00:51.845Z,1.53
2018-01-18T23:03:19.383Z,3.83
2018-01-18T23:05:46.913Z,1.60
2018-01-18T23:08:25.236Z,1.62
2018-01-18T23:14:30.685Z,2.30
2018-01-18T23:16:58.224Z,1.83
2018-01-18T23:19:25.760Z,2.47
2018-01-18T23:21:53.307Z,5.63
2018-01-18T23:24:21.607Z,1.98
2018-01-18T23:26:49.152Z,6.03
2018-01-18T23:29:17.475Z,1.50
2018-01-18T23:31:44.996Z,7.43
2018-01-18T23:34:14.206Z,4.45
2018-01-18T23:36:42.099Z,4.17
2018-01-18T23:39:09.632Z,6.07
2018-01-18T23:41:37.159Z,1.60
2018-01-18T23:44:04.747Z,6.53
2018-01-18T23:46:32.275Z,2.67
2018-01-18T23:48:59.874Z,2.17
2018-01-18T23:51:27.491Z,1.27
2018-01-18T23:53:55.695Z,5.07
2018-01-18T23:56:23.223Z,3.83
2018-01-18T23:58:51.271Z,2.17
